Time;durP1;ratioP1;P1;durP2;ratioP2;P2;SDS_P1;SDS_P2;PMS_P1;PMS_P2;Temp;Humidity;BMP_temperature;BMP_pressure;BME280_temperature;BME280_humidity;BME280_pressure;Samples;Min_cycle;Max_cycle;Signal;HPM_P1;HPM_P2
2024/03/10 00:01:09;;;;;;;38.55;33.13;;;5.50;99.90;;;;;;5010322;28;20128;-78
2024/03/10 00:03:36;;;;;;;37.63;32.83;;;5.50;99.90;;;;;;5007387;28;20123;-77
2024/03/10 00:06:02;;;;;;;36.70;32.70;;;5.50;99.90;;;;;;5023351;28;20053;-79
2024/03/10 00:08:28;;;;;;;38.47;33.05;;;5.60;99.90;;;;;;5007853;28;20113;-78
2024/03/10 00:10:54;;;;;;;39.35;33.33;;;5.60;99.90;;;;;;5026748;28;20170;-79
2024/03/10 00:13:20;;;;;;;40.85;34.30;;;5.60;99.90;;;;;;5021484;28;20472;-77
2024/03/10 00:15:46;;;;;;;38.25;31.83;;;5.60;99.90;;;;;;5007374;28;20040;-77
2024/03/10 00:18:12;;;;;;;37.92;33.58;;;5.70;99.90;;;;;;5006698;28;20076;-77
2024/03/10 00:20:38;;;;;;;39.28;33.78;;;5.70;99.90;;;;;;5023131;28;20487;-78
2024/03/10 00:23:03;;;;;;;38.67;32.72;;;5.70;99.90;;;;;;5018165;28;20045;-78
2024/03/10 00:25:29;;;;;;;39.47;34.25;;;5.70;99.90;;;;;;5022378;28;20094;-79
2024/03/10 00:27:55;;;;;;;38.60;33.47;;;5.60;99.90;;;;;;5016785;28;20037;-77
2024/03/10 00:30:21;;;;;;;37.90;33.60;;;5.70;99.90;;;;;;5012570;28;20041;-77
2024/03/10 00:32:47;;;;;;;40.55;33.75;;;5.70;99.90;;;;;;5016551;28;20041;-78
2024/03/10 00:35:13;;;;;;;39.58;33.95;;;5.70;99.90;;;;;;5002096;28;20056;-79
2024/03/10 00:37:39;;;;;;;40.03;33.58;;;5.70;99.90;;;;;;5000272;28;20048;-78
2024/03/10 00:40:06;;;;;;;38.92;33.97;;;5.70;99.90;;;;;;5014694;28;20045;-77
2024/03/10 00:42:35;;;;;;;39.60;34.83;;;5.70;99.90;;;;;;5018677;28;20496;-78
2024/03/10 00:45:00;;;;;;;36.72;32.70;;;5.70;99.90;;;;;;5012280;28;20052;-79
2024/03/10 00:47:26;;;;;;;36.72;32.72;;;5.70;99.90;;;;;;5015670;28;20449;-78
2024/03/10 00:49:52;;;;;;;40.40;33.60;;;5.70;99.90;;;;;;5010475;28;20036;-78
2024/03/10 00:52:18;;;;;;;38.35;33.40;;;5.60;99.90;;;;;;5021782;28;20052;-78
2024/03/10 00:54:44;;;;;;;39.83;34.08;;;5.70;99.90;;;;;;5008600;28;20617;-78
2024/03/10 00:57:10;;;;;;;41.28;34.65;;;5.70;99.90;;;;;;5019359;28;20059;-78
2024/03/10 00:59:35;;;;;;;40.22;34.03;;;5.60;99.90;;;;;;5017795;28;20649;-78
2024/03/10 01:02:03;;;;;;;39.72;34.40;;;5.60;99.90;;;;;;5024018;28;20044;-78
2024/03/10 01:04:29;;;;;;;38.65;33.92;;;5.60;99.90;;;;;;5007967;28;20053;-78
2024/03/10 01:06:54;;;;;;;37.15;33.10;;;5.60;99.90;;;;;;5012968;28;20075;-78
2024/03/10 01:09:20;;;;;;;41.40;34.85;;;5.60;99.90;;;;;;4997878;28;20377;-79
2024/03/10 01:11:50;;;;;;;39.47;34.45;;;5.60;99.90;;;;;;4998845;28;20053;-79
2024/03/10 01:14:17;;;;;;;38.97;33.70;;;5.60;99.90;;;;;;5014270;28;20045;-80
2024/03/10 01:16:43;;;;;;;39.28;33.78;;;5.60;99.90;;;;;;4997730;28;20068;-79
2024/03/10 01:19:09;;;;;;;40.30;33.63;;;5.60;99.90;;;;;;5015641;28;20110;-79
2024/03/10 01:21:35;;;;;;;40.00;35.00;;;5.60;99.90;;;;;;5004499;28;20041;-78
2024/03/10 01:24:08;;;;;;;37.75;33.20;;;5.60;99.90;;;;;;4999124;28;20048;-79
2024/03/10 01:26:34;;;;;;;37.33;33.20;;;5.60;99.90;;;;;;5013664;28;20124;-81
2024/03/10 01:29:00;;;;;;;37.67;33.60;;;5.60;99.90;;;;;;5000513;28;20042;-77
2024/03/10 01:31:28;;;;;;;41.22;33.67;;;5.60;99.90;;;;;;5023954;28;20047;-79
2024/03/10 01:33:54;;;;;;;38.20;33.35;;;5.60;99.90;;;;;;5014457;28;20467;-80
2024/03/10 01:36:21;;;;;;;39.40;32.75;;;5.60;99.90;;;;;;5001704;28;20037;-78
2024/03/10 01:38:46;;;;;;;38.40;33.55;;;5.60;99.90;;;;;;4998728;28;21282;-79
2024/03/10 01:41:12;;;;;;;39.13;34.00;;;5.60;99.90;;;;;;5013812;28;20712;-79
2024/03/10 01:43:43;;;;;;;38.40;32.88;;;5.70;99.90;;;;;;5013147;28;20140;-79
2024/03/10 01:46:11;;;;;;;39.20;34.25;;;5.60;99.90;;;;;;4996383;28;20042;-78
2024/03/10 01:48:40;;;;;;;38.67;32.90;;;5.70;99.90;;;;;;4999222;28;20043;-79
2024/03/10 01:51:08;;;;;;;39.15;33.60;;;5.70;99.90;;;;;;5034174;28;20445;-78
2024/03/10 01:53:36;;;;;;;39.25;32.85;;;5.70;99.90;;;;;;5019323;28;20124;-78
2024/03/10 01:56:12;;;;;;;37.53;32.05;;;5.60;99.90;;;;;;5014338;28;20500;-78
2024/03/10 01:58:40;;;;;;;38.45;32.60;;;5.60;99.90;;;;;;5012043;28;20466;-79
2024/03/10 02:01:06;;;;;;;37.65;32.92;;;5.70;99.90;;;;;;5001284;28;20045;-78
2024/03/10 02:03:35;;;;;;;35.90;31.85;;;5.70;99.90;;;;;;5019529;28;20040;-77
2024/03/10 02:06:02;;;;;;;39.47;33.15;;;5.70;99.90;;;;;;5013310;28;20519;-82
2024/03/10 02:08:28;;;;;;;38.38;32.33;;;5.80;99.90;;;;;;5000657;28;20037;-79
2024/03/10 02:10:54;;;;;;;36.60;32.60;;;5.70;99.90;;;;;;5024428;28;20045;-77
2024/03/10 02:13:23;;;;;;;37.65;33.10;;;5.70;99.90;;;;;;5010617;28;20625;-77
2024/03/10 02:16:19;;;;;;;36.47;31.85;;;5.70;99.90;;;;;;4985259;28;20520;-77
2024/03/10 02:18:47;;;;;;;37.17;31.60;;;5.70;99.90;;;;;;4988929;28;20059;-78
2024/03/10 02:21:14;;;;;;;38.13;33.13;;;5.70;99.90;;;;;;5018150;28;20048;-80
2024/03/10 02:24:12;;;;;;;39.05;34.08;;;5.60;99.90;;;;;;4984956;28;20565;-77
2024/03/10 02:26:42;;;;;;;36.97;32.35;;;5.60;99.90;;;;;;4983703;28;20041;-78
2024/03/10 02:29:15;;;;;;;40.80;34.37;;;5.60;99.90;;;;;;4987338;28;20635;-77
2024/03/10 02:48:09;;;;;;;37.67;33.00;;;5.50;99.90;;;;;;4989462;28;20049;-76
2024/03/10 02:50:36;;;;;;;37.88;32.63;;;5.50;99.90;;;;;;4980652;28;20688;-77
2024/03/10 02:53:04;;;;;;;38.47;33.70;;;5.50;99.90;;;;;;5007138;28;20645;-77
2024/03/10 02:55:34;;;;;;;37.20;32.88;;;5.40;99.90;;;;;;5008515;28;20049;-78
2024/03/10 02:58:01;;;;;;;38.20;32.65;;;5.40;99.90;;;;;;4991847;28;20389;-76
2024/03/10 03:00:31;;;;;;;38.30;33.45;;;5.40;99.90;;;;;;5003893;28;20506;-77
2024/03/10 03:03:03;;;;;;;38.03;32.53;;;5.40;99.90;;;;;;4981335;28;20061;-77
2024/03/10 03:05:29;;;;;;;37.03;33.00;;;5.40;99.90;;;;;;5006136;28;20060;-77
2024/03/10 03:07:57;;;;;;;40.58;33.13;;;5.40;99.90;;;;;;4988492;28;20048;-79
2024/03/10 03:10:23;;;;;;;38.92;33.20;;;5.40;99.90;;;;;;5006719;28;20048;-77
2024/03/10 03:12:49;;;;;;;39.50;32.97;;;5.40;99.90;;;;;;4995871;28;20599;-77
2024/03/10 03:15:18;;;;;;;37.60;33.53;;;5.40;99.90;;;;;;4989415;28;20053;-78
2024/03/10 03:17:45;;;;;;;37.53;33.43;;;5.40;99.90;;;;;;5022673;28;20508;-76
2024/03/10 03:20:20;;;;;;;39.60;33.78;;;5.40;99.90;;;;;;5011755;28;20304;-76
2024/03/10 03:22:47;;;;;;;39.13;32.83;;;5.40;99.90;;;;;;4991028;28;20075;-80
2024/03/10 03:25:17;;;;;;;39.35;33.33;;;5.40;99.90;;;;;;5010461;28;20044;-77
2024/03/10 03:27:50;;;;;;;38.28;34.05;;;5.40;99.90;;;;;;5007571;28;20779;-76
2024/03/10 03:30:17;;;;;;;37.17;32.08;;;5.40;99.90;;;;;;5006979;28;21353;-77
2024/03/10 03:32:43;;;;;;;39.40;33.05;;;5.30;99.90;;;;;;5005964;28;20411;-76
2024/03/10 03:35:14;;;;;;;37.97;33.78;;;5.30;99.90;;;;;;5006267;28;20049;-76
2024/03/10 03:37:40;;;;;;;38.97;33.80;;;5.30;99.90;;;;;;4989642;28;20041;-76
2024/03/10 03:40:07;;;;;;;38.55;33.45;;;5.30;99.90;;;;;;4993243;28;20063;-76
2024/03/10 03:42:36;;;;;;;39.05;34.45;;;5.30;99.90;;;;;;5005800;28;20052;-76
2024/03/10 03:45:05;;;;;;;38.63;32.60;;;5.30;99.90;;;;;;5000983;28;20052;-77
2024/03/10 03:47:32;;;;;;;39.78;34.00;;;5.20;99.90;;;;;;5005585;28;20127;-78
2024/03/10 03:49:58;;;;;;;39.25;34.50;;;5.20;99.90;;;;;;5001922;28;20037;-78
2024/03/10 03:52:24;;;;;;;37.83;32.53;;;5.20;99.90;;;;;;4988709;28;20133;-78
2024/03/10 03:54:53;;;;;;;41.20;35.45;;;5.30;99.90;;;;;;5000265;28;20128;-77
2024/03/10 03:57:19;;;;;;;38.03;33.85;;;5.20;99.90;;;;;;5017632;28;20125;-75
2024/03/10 03:59:45;;;;;;;41.65;34.63;;;5.20;99.90;;;;;;5039827;28;20037;-78
2024/03/10 04:02:11;;;;;;;40.67;34.95;;;5.20;99.90;;;;;;5019004;28;20418;-77
2024/03/10 04:04:37;;;;;;;39.22;34.50;;;5.20;99.90;;;;;;5029133;28;20045;-79
2024/03/10 04:07:09;;;;;;;40.47;34.28;;;5.20;99.90;;;;;;5017788;28;20045;-78
2024/03/10 04:09:35;;;;;;;39.03;34.42;;;5.20;99.90;;;;;;5025043;28;20076;-76
2024/03/10 04:12:04;;;;;;;40.72;34.72;;;5.20;99.90;;;;;;5001699;28;20045;-77
2024/03/10 04:14:30;;;;;;;42.47;36.47;;;5.20;99.90;;;;;;5003409;28;20044;-76
2024/03/10 04:16:56;;;;;;;42.53;35.85;;;5.10;99.90;;;;;;5014583;28;20158;-79
2024/03/10 04:19:22;;;;;;;40.55;35.38;;;5.10;99.90;;;;;;5024512;28;20033;-78
2024/03/10 04:21:49;;;;;;;40.13;35.45;;;5.10;99.90;;;;;;5007436;28;20096;-77
2024/03/10 04:24:15;;;;;;;38.03;33.60;;;5.10;99.90;;;;;;5017495;28;20164;-79
2024/03/10 04:26:42;;;;;;;40.15;34.53;;;5.10;99.90;;;;;;5007676;28;20041;-78
2024/03/10 04:29:09;;;;;;;42.75;35.30;;;5.10;99.90;;;;;;5017794;28;20042;-79
2024/03/10 04:31:36;;;;;;;40.63;36.22;;;5.10;99.90;;;;;;5020646;28;20128;-80
2024/03/10 04:34:05;;;;;;;41.47;35.88;;;5.00;99.90;;;;;;5016298;28;20119;-78
2024/03/10 04:36:32;;;;;;;41.65;35.63;;;5.00;99.90;;;;;;5005080;28;20044;-78
2024/03/10 04:38:59;;;;;;;43.90;36.65;;;5.00;99.90;;;;;;5021984;28;20045;-80
2024/03/10 04:41:25;;;;;;;41.92;36.72;;;5.00;99.90;;;;;;5021858;28;20114;-80
2024/03/10 04:43:51;;;;;;;42.20;34.55;;;4.90;99.90;;;;;;5014860;28;20408;-77
2024/03/10 04:46:20;;;;;;;41.55;35.35;;;4.90;99.90;;;;;;5023957;28;20041;-78
2024/03/10 04:48:46;;;;;;;41.22;35.47;;;4.90;99.90;;;;;;5015196;28;20041;-77
2024/03/10 04:51:16;;;;;;;43.13;36.63;;;4.80;99.90;;;;;;5017089;28;20040;-78
2024/03/10 04:53:43;;;;;;;44.42;36.05;;;4.90;99.90;;;;;;5007777;28;20331;-82
2024/03/10 04:56:12;;;;;;;44.97;37.80;;;4.90;99.90;;;;;;5001111;28;20056;-78
2024/03/10 04:58:40;;;;;;;44.08;36.45;;;4.80;99.90;;;;;;5011061;28;20111;-80
2024/03/10 05:01:08;;;;;;;42.40;36.28;;;4.80;99.90;;;;;;5018926;28;20102;-78
2024/03/10 05:03:39;;;;;;;43.83;36.47;;;4.80;99.90;;;;;;5000507;28;20179;-81
2024/03/10 05:06:06;;;;;;;41.00;35.42;;;4.80;99.90;;;;;;5026415;28;20045;-80
2024/03/10 05:08:33;;;;;;;41.05;36.00;;;4.80;99.90;;;;;;5024712;28;20115;-81
2024/03/10 05:11:03;;;;;;;47.22;39.40;;;4.80;99.90;;;;;;5028705;28;20121;-78
2024/03/10 05:13:38;;;;;;;44.33;37.60;;;4.70;99.90;;;;;;5009281;28;20507;-79
2024/03/10 05:16:04;;;;;;;44.08;37.72;;;4.70;99.90;;;;;;5040474;28;20044;-78
2024/03/10 05:18:34;;;;;;;44.17;37.80;;;4.70;99.90;;;;;;5022465;28;20600;-77
2024/03/10 05:21:00;;;;;;;44.33;38.45;;;4.60;99.90;;;;;;5025775;28;20500;-78
2024/03/10 05:23:29;;;;;;;43.30;37.83;;;4.60;99.90;;;;;;5026483;28;20049;-78
2024/03/10 05:25:55;;;;;;;43.83;37.35;;;4.60;99.90;;;;;;5023839;28;20076;-77
2024/03/10 05:28:20;;;;;;;46.45;39.22;;;4.60;99.90;;;;;;5029136;28;20095;-79
2024/03/10 05:30:46;;;;;;;46.28;38.65;;;4.50;99.90;;;;;;5019392;28;20460;-78
2024/03/10 05:33:15;;;;;;;49.38;40.45;;;4.50;99.90;;;;;;5023264;28;20063;-77
2024/03/10 05:35:41;;;;;;;47.38;40.45;;;4.50;99.90;;;;;;5015938;28;20136;-76
2024/03/10 05:38:07;;;;;;;46.67;38.38;;;4.50;99.90;;;;;;5008941;28;20047;-78
2024/03/10 05:40:33;;;;;;;45.58;38.85;;;4.50;99.90;;;;;;5011489;28;20147;-78
2024/03/10 05:42:59;;;;;;;46.42;39.47;;;4.50;99.90;;;;;;5023217;28;20040;-77
2024/03/10 05:45:28;;;;;;;49.03;41.20;;;4.40;99.90;;;;;;5008691;28;20060;-78
2024/03/10 05:47:54;;;;;;;47.75;41.42;;;4.40;99.90;;;;;;5040908;28;20395;-77
2024/03/10 05:50:21;;;;;;;48.88;41.13;;;4.40;99.90;;;;;;5010414;28;20124;-78
2024/03/10 05:52:48;;;;;;;48.65;39.70;;;4.40;99.90;;;;;;5017162;28;20057;-77
2024/03/10 05:55:14;;;;;;;48.45;40.20;;;4.40;99.90;;;;;;5022983;28;20128;-79
2024/03/10 05:57:41;;;;;;;52.55;41.60;;;4.40;99.90;;;;;;5021546;28;20044;-77
2024/03/10 06:00:13;;;;;;;49.70;41.05;;;4.40;99.90;;;;;;5012350;28;20033;-79
2024/03/10 06:02:43;;;;;;;51.55;43.25;;;4.40;99.90;;;;;;5024954;28;20387;-78
2024/03/10 06:05:16;;;;;;;50.90;43.10;;;4.40;99.90;;;;;;5025173;28;20515;-78
2024/03/10 06:07:44;;;;;;;52.50;43.33;;;4.40;99.90;;;;;;5012535;28;20053;-79
2024/03/10 06:10:11;;;;;;;48.70;42.25;;;4.30;99.90;;;;;;5023071;28;20136;-79
2024/03/10 06:12:39;;;;;;;49.47;41.45;;;4.30;99.90;;;;;;5009553;28;20049;-78
2024/03/10 06:15:10;;;;;;;52.53;44.35;;;4.40;99.90;;;;;;5024287;28;20129;-79
2024/03/10 06:17:36;;;;;;;53.42;43.58;;;4.30;99.90;;;;;;5024405;28;20495;-79
2024/03/10 06:25:35;;;;;;;51.83;43.75;;;4.30;99.90;;;;;;5027115;28;20049;-79
2024/03/10 06:28:01;;;;;;;54.75;44.92;;;4.30;99.90;;;;;;5021932;28;20049;-79
2024/03/10 06:30:26;;;;;;;54.35;44.60;;;4.30;99.90;;;;;;5032518;28;20497;-80
2024/03/10 06:32:52;;;;;;;58.42;46.17;;;4.30;99.90;;;;;;5021167;28;20402;-79
2024/03/10 06:35:19;;;;;;;55.80;45.05;;;4.40;99.90;;;;;;5001902;28;20049;-79
2024/03/10 06:37:48;;;;;;;57.78;47.05;;;4.40;99.90;;;;;;5027562;28;20044;-79
2024/03/10 06:40:14;;;;;;;55.75;46.35;;;4.40;99.90;;;;;;5023094;28;20049;-78
2024/03/10 06:42:40;;;;;;;58.15;47.65;;;4.40;99.90;;;;;;5006624;28;20380;-78
2024/03/10 06:45:06;;;;;;;57.35;46.88;;;4.40;99.90;;;;;;5033523;28;20044;-81
2024/03/10 06:47:34;;;;;;;57.28;47.25;;;4.40;99.90;;;;;;5030646;28;20045;-82
2024/03/10 06:49:59;;;;;;;56.90;46.47;;;4.40;99.90;;;;;;5022939;28;20060;-80
2024/03/10 06:52:26;;;;;;;56.38;47.47;;;4.50;99.90;;;;;;5012553;28;20048;-78
2024/03/10 06:54:52;;;;;;;55.75;46.83;;;4.50;99.90;;;;;;5017284;28;20209;-78
2024/03/10 06:57:18;;;;;;;55.35;46.08;;;4.50;99.90;;;;;;5023197;28;20052;-77
2024/03/10 06:59:47;;;;;;;56.03;46.15;;;4.50;99.90;;;;;;5018346;28;20033;-77
2024/03/10 07:02:13;;;;;;;58.55;48.25;;;4.50;99.90;;;;;;5027260;28;20387;-78
2024/03/10 07:04:40;;;;;;;58.67;48.55;;;4.50;99.90;;;;;;5012636;28;20061;-77
2024/03/10 07:07:08;;;;;;;57.63;47.25;;;4.60;99.90;;;;;;5010106;28;20116;-77
2024/03/10 07:09:35;;;;;;;57.53;46.83;;;4.60;99.90;;;;;;5003151;28;20045;-77
2024/03/10 07:12:03;;;;;;;57.72;47.13;;;4.60;99.90;;;;;;5018883;28;20060;-77
2024/03/10 07:14:29;;;;;;;56.50;46.08;;;4.60;99.90;;;;;;5001956;28;20048;-76
2024/03/10 07:16:55;;;;;;;57.38;47.70;;;4.60;99.90;;;;;;4996180;28;20175;-77
2024/03/10 07:19:21;;;;;;;56.47;47.65;;;4.60;99.90;;;;;;4995695;28;20136;-77
2024/03/10 07:21:47;;;;;;;58.38;47.03;;;4.70;99.90;;;;;;5003356;28;20417;-76
2024/03/10 07:24:12;;;;;;;58.83;49.17;;;4.70;99.90;;;;;;5009667;28;20470;-76
2024/03/10 07:26:38;;;;;;;57.25;46.97;;;4.70;99.90;;;;;;5028546;28;20048;-77
2024/03/10 07:29:04;;;;;;;58.85;48.97;;;4.80;99.90;;;;;;5020681;28;20041;-76
2024/03/10 07:31:33;;;;;;;59.10;48.03;;;4.90;99.90;;;;;;5024254;28;20542;-76
2024/03/10 07:33:59;;;;;;;60.10;48.50;;;4.80;99.90;;;;;;5013027;28;20045;-76
2024/03/10 07:36:26;;;;;;;60.47;49.08;;;4.90;99.90;;;;;;5003854;28;20480;-76
2024/03/10 07:38:56;;;;;;;55.53;46.25;;;4.90;99.90;;;;;;5002671;28;20209;-76
2024/03/10 07:41:21;;;;;;;58.00;48.45;;;4.90;99.90;;;;;;5011851;28;20440;-76
2024/03/10 07:43:50;;;;;;;56.33;48.78;;;4.90;99.90;;;;;;5019300;28;20057;-76
2024/03/10 07:46:17;;;;;;;57.47;47.78;;;5.00;99.90;;;;;;5009260;28;20406;-77
2024/03/10 07:48:43;;;;;;;60.38;48.15;;;5.00;99.90;;;;;;4999639;28;20389;-77
2024/03/10 07:51:09;;;;;;;61.08;48.97;;;5.00;99.90;;;;;;5023710;28;20499;-77
2024/03/10 07:53:35;;;;;;;61.03;49.75;;;5.00;99.90;;;;;;5017418;28;20046;-77
2024/03/10 07:56:04;;;;;;;57.33;47.58;;;5.00;99.90;;;;;;5011150;28;20292;-75
2024/03/10 07:58:30;;;;;;;57.80;47.60;;;5.00;99.90;;;;;;5031673;28;20500;-77
2024/03/10 08:00:56;;;;;;;58.20;46.70;;;5.00;99.90;;;;;;5018182;28;20052;-77
2024/03/10 08:03:22;;;;;;;56.10;47.72;;;5.00;99.90;;;;;;5002413;28;20121;-77
2024/03/10 08:05:48;;;;;;;57.58;46.17;;;5.00;99.90;;;;;;5011356;28;20060;-77
2024/03/10 08:08:14;;;;;;;58.58;48.63;;;5.10;99.90;;;;;;5004200;28;20049;-78
2024/03/10 08:10:40;;;;;;;59.28;48.50;;;5.10;99.90;;;;;;5017188;28;20045;-79
2024/03/10 08:13:06;;;;;;;57.50;47.25;;;5.10;99.90;;;;;;5007477;28;20178;-81
2024/03/10 08:15:32;;;;;;;57.63;48.30;;;5.20;99.90;;;;;;5006290;28;20051;-78
2024/03/10 08:17:58;;;;;;;58.00;47.75;;;5.20;99.90;;;;;;4994029;28;20053;-79
2024/03/10 08:20:24;;;;;;;58.20;48.53;;;5.20;99.90;;;;;;5008841;28;20088;-81
2024/03/10 08:22:52;;;;;;;56.13;47.45;;;5.30;99.90;;;;;;5000552;28;20037;-79
2024/03/10 08:25:18;;;;;;;57.83;46.63;;;5.40;99.90;;;;;;4999169;28;20053;-77
2024/03/10 08:27:45;;;;;;;57.75;47.00;;;5.40;99.90;;;;;;5020968;28;20037;-77
2024/03/10 08:30:11;;;;;;;55.42;45.38;;;5.50;99.90;;;;;;5015861;28;20084;-79
2024/03/10 08:32:38;;;;;;;57.25;46.15;;;5.60;99.90;;;;;;5003007;28;20049;-80
2024/03/10 08:35:13;;;;;;;55.17;46.40;;;5.60;99.90;;;;;;5001752;28;20099;-78
2024/03/10 08:37:41;;;;;;;57.08;46.58;;;5.60;99.90;;;;;;5009130;28;20075;-78
2024/03/10 08:40:10;;;;;;;54.00;45.08;;;5.70;99.90;;;;;;5016499;28;20083;-78
2024/03/10 08:42:43;;;;;;;53.38;45.30;;;5.70;99.90;;;;;;5007984;28;20056;-81
2024/03/10 08:45:10;;;;;;;59.08;48.35;;;5.70;99.90;;;;;;5003600;28;20045;-78
2024/03/10 08:47:45;;;;;;;54.83;46.35;;;5.90;99.90;;;;;;5018503;28;20056;-77
2024/03/10 08:50:12;;;;;;;56.35;47.03;;;5.90;99.90;;;;;;5015005;28;20075;-79
2024/03/10 08:52:38;;;;;;;55.28;46.30;;;5.90;99.90;;;;;;5023353;28;20072;-76
2024/03/10 08:55:05;;;;;;;53.88;45.92;;;6.00;99.90;;;;;;5018140;28;20069;-76
2024/03/10 08:57:35;;;;;;;53.00;44.78;;;6.00;99.90;;;;;;5012823;28;20045;-76
2024/03/10 09:00:03;;;;;;;50.78;44.78;;;6.00;99.90;;;;;;5023194;28;20056;-77
2024/03/10 09:02:34;;;;;;;50.58;44.00;;;6.10;99.90;;;;;;5001122;28;20056;-79
2024/03/10 09:05:01;;;;;;;52.65;44.17;;;6.20;99.90;;;;;;5003879;28;20079;-77
2024/03/10 09:07:31;;;;;;;53.40;45.53;;;6.30;99.90;;;;;;5007113;28;20052;-77
2024/03/10 09:15:00;;;;;;;52.42;44.17;;;6.60;99.90;;;;;;5001775;28;20053;-81
2024/03/10 09:17:26;;;;;;;47.83;42.08;;;6.70;99.90;;;;;;5021540;28;20049;-81
2024/03/10 09:19:52;;;;;;;53.28;45.80;;;6.70;99.90;;;;;;5037835;28;20037;-79
2024/03/10 09:22:19;;;;;;;49.83;42.45;;;6.80;99.90;;;;;;5023744;28;20048;-81
2024/03/10 09:24:48;;;;;;;51.53;43.78;;;6.80;99.90;;;;;;5010678;28;20049;-82
2024/03/10 09:27:14;;;;;;;48.83;42.35;;;6.90;99.90;;;;;;5014709;28;20049;-82
2024/03/10 09:29:40;;;;;;;49.75;43.25;;;6.90;99.90;;;;;;5020579;28;20102;-80
2024/03/10 09:32:06;;;;;;;48.17;42.92;;;7.00;99.90;;;;;;5022175;28;20491;-81
2024/03/10 09:34:34;;;;;;;50.50;43.88;;;7.00;99.90;;;;;;5029145;28;20048;-79
2024/03/10 09:37:01;;;;;;;47.70;41.45;;;7.10;99.90;;;;;;5026187;28;20387;-81
2024/03/10 09:39:26;;;;;;;48.38;43.20;;;7.20;99.90;;;;;;5028699;28;20048;-79
2024/03/10 09:41:52;;;;;;;48.55;42.33;;;7.30;99.90;;;;;;5013549;28;20039;-82
2024/03/10 09:44:19;;;;;;;47.88;42.75;;;7.50;99.90;;;;;;5027822;28;20049;-81
2024/03/10 09:46:50;;;;;;;48.65;43.35;;;7.60;99.90;;;;;;5028720;28;20441;-80
2024/03/10 09:49:20;;;;;;;46.47;40.88;;;7.70;99.90;;;;;;5007116;28;20874;-82
2024/03/10 09:51:50;;;;;;;48.65;42.45;;;7.80;99.90;;;;;;5034917;28;20106;-82
2024/03/10 09:54:17;;;;;;;46.35;41.33;;;8.00;99.90;;;;;;5004973;28;20067;-85
2024/03/10 09:56:45;;;;;;;46.40;41.25;;;8.00;99.90;;;;;;5025888;28;20404;-79
2024/03/10 09:59:22;;;;;;;45.83;40.92;;;8.10;99.90;;;;;;5008253;28;20068;-81
2024/03/10 10:01:50;;;;;;;46.58;41.55;;;8.20;99.90;;;;;;5007887;28;20495;-80
2024/03/10 10:04:19;;;;;;;46.20;41.20;;;8.30;99.90;;;;;;5016951;28;20041;-78
2024/03/10 10:06:46;;;;;;;46.70;41.55;;;8.40;99.90;;;;;;5021314;28;20103;-83
2024/03/10 10:09:12;;;;;;;46.97;40.58;;;8.50;99.90;;;;;;5012224;28;20068;-79
2024/03/10 10:11:38;;;;;;;45.38;40.13;;;8.50;99.90;;;;;;5023868;28;20052;-80
2024/03/10 10:14:11;;;;;;;44.95;40.10;;;8.60;99.90;;;;;;5024866;28;20112;-85
2024/03/10 10:16:37;;;;;;;46.15;41.17;;;8.70;99.90;;;;;;5021529;28;20098;-79
2024/03/10 10:19:07;;;;;;;47.45;42.30;;;8.80;99.90;;;;;;5027258;28;20049;-80
2024/03/10 10:21:36;;;;;;;45.83;40.90;;;8.90;99.90;;;;;;5004130;28;21042;-80
2024/03/10 10:24:04;;;;;;;45.45;39.90;;;9.00;99.90;;;;;;5011474;28;20106;-81
2024/03/10 10:26:30;;;;;;;45.70;40.75;;;9.10;99.90;;;;;;5020545;28;20074;-78
2024/03/10 10:29:22;;;;;;;43.35;38.83;;;9.10;99.90;;;;;;5023935;28;20094;-78
2024/03/10 10:32:06;;;;;;;45.17;40.20;;;9.20;99.90;;;;;;5023387;28;20049;-79
2024/03/10 10:34:34;;;;;;;44.28;39.60;;;9.20;99.90;;;;;;5012575;28;20041;-78
2024/03/10 10:37:01;;;;;;;45.42;40.63;;;9.20;99.90;;;;;;5035585;28;20041;-80
2024/03/10 10:39:29;;;;;;;44.70;39.97;;;9.20;99.90;;;;;;5016282;28;20111;-80
2024/03/10 10:41:58;;;;;;;45.50;39.80;;;9.20;99.90;;;;;;5014474;28;20051;-79
2024/03/10 10:44:24;;;;;;;44.10;39.40;;;9.30;99.90;;;;;;5018336;28;20059;-80
2024/03/10 10:46:51;;;;;;;44.28;39.50;;;9.30;99.90;;;;;;5030075;28;20099;-83
2024/03/10 10:49:21;;;;;;;44.83;40.08;;;9.40;99.90;;;;;;5024661;28;20037;-85
2024/03/10 10:51:50;;;;;;;43.50;38.78;;;9.50;99.90;;;;;;5010159;28;20045;-84
2024/03/10 10:54:20;;;;;;;43.88;39.17;;;9.60;99.90;;;;;;5030036;28;20108;-84
2024/03/10 10:56:56;;;;;;;46.03;40.95;;;9.60;99.90;;;;;;5027127;28;20048;-83
2024/03/10 10:59:27;;;;;;;41.88;37.33;;;9.60;99.90;;;;;;5029386;28;20049;-83
2024/03/10 11:02:05;;;;;;;45.33;40.08;;;9.60;99.90;;;;;;5018610;28;20077;-80
2024/03/10 11:04:31;;;;;;;42.35;37.90;;;9.80;99.90;;;;;;5020262;28;20079;-80
2024/03/10 11:06:58;;;;;;;43.75;39.08;;;9.90;99.90;;;;;;5025922;28;20507;-81
2024/03/10 11:09:28;;;;;;;42.03;37.55;;;10.00;99.90;;;;;;5027411;28;20045;-82
2024/03/10 11:11:54;;;;;;;42.65;38.33;;;10.10;99.90;;;;;;5013697;28;20093;-80
2024/03/10 11:14:25;;;;;;;40.30;36.10;;;10.20;99.90;;;;;;5014694;28;20040;-81
2024/03/10 11:17:15;;;;;;;40.85;36.55;;;10.20;99.90;;;;;;5003007;28;20136;-80
2024/03/10 11:19:45;;;;;;;41.90;37.58;;;10.20;99.90;;;;;;5019623;28;20044;-82
2024/03/10 11:22:11;;;;;;;40.90;36.67;;;10.20;99.90;;;;;;5006415;28;20048;-81
2024/03/10 11:24:37;;;;;;;42.38;37.92;;;10.20;99.90;;;;;;5017143;28;20760;-80
2024/03/10 11:27:36;;;;;;;43.30;38.80;;;10.10;99.90;;;;;;5004033;28;20110;-80
2024/03/10 11:30:47;;;;;;;41.83;37.42;;;10.10;99.90;;;;;;5014367;28;20085;-85
2024/03/10 11:33:21;;;;;;;39.85;35.67;;;10.20;99.90;;;;;;5027702;28;20422;-80
2024/03/10 11:35:47;;;;;;;40.63;36.50;;;10.20;99.90;;;;;;5021622;28;20049;-80
2024/03/10 11:38:15;;;;;;;41.30;37.10;;;10.40;99.90;;;;;;5034391;28;20418;-85
2024/03/10 11:40:42;;;;;;;39.63;35.60;;;10.40;99.90;;;;;;5028045;28;20049;-82
2024/03/10 11:43:10;;;;;;;40.20;36.10;;;10.50;99.90;;;;;;5024116;28;20402;-84
2024/03/10 11:45:41;;;;;;;39.55;35.42;;;10.60;99.90;;;;;;5026267;28;20153;-81
2024/03/10 11:48:08;;;;;;;40.13;36.13;;;10.70;99.90;;;;;;5016447;28;20111;-82
2024/03/10 11:50:34;;;;;;;40.33;36.00;;;10.80;99.90;;;;;;5014754;28;20448;-80
2024/03/10 11:53:02;;;;;;;39.20;35.30;;;10.80;99.90;;;;;;5022119;28;20040;-79
2024/03/10 11:55:28;;;;;;;39.25;35.03;;;10.80;99.90;;;;;;5018705;28;20049;-81
2024/03/10 11:57:54;;;;;;;38.55;34.53;;;10.80;99.90;;;;;;5016411;28;20388;-82
2024/03/10 12:00:21;;;;;;;37.97;33.97;;;10.90;99.90;;;;;;5027824;28;20127;-81
2024/03/10 12:02:51;;;;;;;38.97;35.08;;;11.00;99.90;;;;;;5035995;28;20041;-84
2024/03/10 12:05:17;;;;;;;;;;;11.00;99.90;;;;;;5023484;28;20052;-81
2024/03/10 12:07:53;;;;;;;35.03;31.55;;;11.00;99.90;;;;;;5025811;28;20023;-84
2024/03/10 12:10:21;;;;;;;37.20;33.42;;;10.90;99.90;;;;;;5017657;28;20072;-81
2024/03/10 12:12:51;;;;;;;35.88;32.17;;;11.00;99.90;;;;;;5018656;28;20040;-84
2024/03/10 12:15:24;;;;;;;35.15;31.58;;;11.10;99.90;;;;;;5014105;28;20113;-79
2024/03/10 12:17:50;;;;;;;35.30;31.80;;;11.20;99.90;;;;;;5015881;28;20098;-80
2024/03/10 12:20:18;;;;;;;36.30;32.53;;;11.20;99.90;;;;;;5015485;28;20033;-82
2024/03/10 12:22:45;;;;;;;36.13;32.45;;;11.20;99.90;;;;;;5014854;28;20049;-80
2024/03/10 12:25:11;;;;;;;37.97;34.00;;;11.20;99.90;;;;;;5003629;28;20522;-81
2024/03/10 12:27:41;;;;;;;36.92;33.00;;;11.20;99.90;;;;;;5016734;28;20045;-83
2024/03/10 12:30:11;;;;;;;37.13;33.40;;;11.20;99.90;;;;;;5025642;28;20043;-84
2024/03/10 12:32:44;;;;;;;37.85;34.05;;;11.10;99.90;;;;;;5031541;28;20631;-81
2024/03/10 12:35:10;;;;;;;37.35;33.55;;;11.00;99.90;;;;;;5028150;28;20081;-79
2024/03/10 12:37:40;;;;;;;36.88;33.13;;;10.90;99.90;;;;;;5010686;28;20042;-73
2024/03/10 12:40:14;;;;;;;36.20;32.65;;;10.90;99.90;;;;;;5046110;28;20051;-73
2024/03/10 12:42:43;;;;;;;37.05;33.05;;;11.00;99.90;;;;;;5019171;28;20049;-73
2024/03/10 12:45:15;;;;;;;38.47;34.58;;;11.00;99.90;;;;;;5020196;28;20519;-74
2024/03/10 12:47:43;;;;;;;35.47;31.67;;;11.10;99.90;;;;;;5028551;28;20201;-76
2024/03/10 12:50:09;;;;;;;34.92;31.33;;;11.20;99.90;;;;;;5020265;28;20852;-73
2024/03/10 12:52:35;;;;;;;35.47;31.85;;;11.20;99.90;;;;;;5013764;28;20132;-73
2024/03/10 12:55:01;;;;;;;35.42;31.63;;;11.20;99.90;;;;;;5011428;28;20497;-82
2024/03/10 12:57:27;;;;;;;33.97;30.63;;;11.30;99.90;;;;;;5004628;28;20124;-81
2024/03/10 12:59:53;;;;;;;33.75;30.30;;;11.40;99.90;;;;;;5026077;28;20057;-80
2024/03/10 13:02:19;;;;;;;35.05;31.55;;;11.40;99.90;;;;;;5012143;28;20069;-83
2024/03/10 13:04:48;;;;;;;36.65;32.13;;;11.50;99.90;;;;;;5029243;28;20108;-82
2024/03/10 13:07:14;;;;;;;34.28;30.77;;;11.60;99.90;;;;;;5022585;28;20108;-79